createdAt,value
2019-04-20T00:01:26.323Z,43.67
2019-04-20T00:04:09.890Z,44.02
2019-04-20T00:06:56.471Z,43.80
2019-04-20T00:09:50.211Z,43.95
2019-04-20T00:12:42.375Z,43.73
2019-04-20T00:15:17.909Z,43.95
2019-04-20T00:18:06.674Z,44.13
2019-04-20T00:21:03.936Z,44.31
2019-04-20T00:23:47.996Z,44.71
2019-04-20T00:27:06.502Z,44.48
2019-04-20T00:29:41.141Z,44.53
2019-04-20T00:32:20.043Z,44.79
2019-04-20T00:34:58.006Z,44.96
2019-04-20T00:37:44.553Z,44.98
2019-04-20T00:40:30.918Z,45.15
2019-04-20T00:43:21.061Z,45.09
2019-04-20T00:46:08.242Z,45.21
2019-04-20T00:49:00.848Z,45.56
2019-04-20T00:52:11.170Z,46.04
2019-04-20T00:54:28.429Z,46.17
2019-04-20T00:57:25.343Z,46.08
2019-04-20T01:00:21.801Z,45.82
2019-04-20T01:03:04.184Z,46.29
2019-04-20T01:06:13.416Z,46.21
2019-04-20T01:08:48.469Z,46.58
2019-04-20T01:11:39.949Z,46.24
2019-04-20T01:14:27.255Z,46.37
2019-04-20T01:17:12.170Z,46.38
2019-04-20T01:19:58.051Z,47.05
2019-04-20T01:22:53.871Z,46.50
2019-04-20T01:25:35.972Z,46.84
2019-04-20T01:28:39.223Z,46.76
2019-04-20T01:31:18.748Z,47.62
2019-04-20T01:34:05.418Z,47.69
2019-04-20T01:36:56.003Z,47.34
2019-04-20T01:39:37.062Z,47.16
2019-04-20T01:42:17.750Z,47.09
2019-04-20T01:45:12.640Z,47.01
2019-04-20T01:47:55.053Z,47.15
2019-04-20T01:50:49.970Z,47.45
2019-04-20T01:53:56.829Z,47.22
2019-04-20T01:56:52.259Z,47.45
2019-04-20T01:59:48.195Z,47.69
2019-04-20T02:02:50.141Z,47.71
2019-04-20T02:05:35.921Z,47.67
2019-04-20T02:08:24.385Z,48.28
2019-04-20T02:11:09.937Z,48.29
2019-04-20T02:14:00.437Z,48.44
2019-04-20T02:16:48.014Z,48.73
2019-04-20T02:19:51.018Z,48.97
2019-04-20T02:22:38.328Z,48.93
2019-04-20T02:25:10.023Z,49.17
2019-04-20T02:28:16.675Z,49.20
2019-04-20T02:34:16.106Z,49.40
2019-04-20T02:42:44.655Z,49.92
2019-04-20T02:45:39.907Z,49.83
2019-04-20T02:48:08.115Z,49.81
2019-04-20T02:50:59.256Z,50.30
2019-04-20T02:56:39.386Z,50.00
2019-04-20T03:01:59.268Z,50.09
2019-04-20T03:04:40.268Z,49.91
2019-04-20T03:07:30.408Z,50.33
2019-04-20T03:10:39.372Z,50.23
2019-04-20T03:13:15.888Z,49.89
2019-04-20T03:16:00.354Z,49.86
2019-04-20T03:18:44.628Z,49.42
2019-04-20T03:21:39.101Z,49.66
2019-04-20T03:24:32.329Z,49.81
2019-04-20T03:27:18.862Z,49.82
2019-04-20T03:31:05.612Z,49.87
2019-04-20T03:36:12.528Z,50.39
2019-04-20T03:38:52.512Z,50.71
2019-04-20T03:41:24.469Z,50.66
2019-04-20T03:44:10.365Z,50.89
2019-04-20T03:46:58.042Z,50.87
2019-04-20T03:50:03.354Z,51.03
2019-04-20T03:53:02.750Z,50.91
2019-04-20T03:55:57.693Z,50.74
2019-04-20T03:59:07.969Z,50.85
2019-04-20T04:02:22.520Z,51.23
2019-04-20T04:05:19.238Z,51.17
2019-04-20T04:08:00.972Z,51.53
2019-04-20T04:11:00.036Z,51.52
2019-04-20T04:13:25.005Z,51.51
2019-04-20T04:16:13.826Z,51.43
2019-04-20T04:19:09.301Z,51.36
2019-04-20T04:22:01.590Z,51.15
2019-04-20T04:24:52.474Z,51.26
2019-04-20T04:27:40.644Z,51.25
2019-04-20T04:30:27.884Z,51.31
2019-04-20T04:33:41.507Z,51.40
2019-04-20T04:36:00.638Z,51.41
2019-04-20T04:39:08.734Z,51.58
2019-04-20T04:41:39.877Z,51.46
2019-04-20T04:44:25.573Z,51.76
2019-04-20T04:47:00.221Z,51.95
2019-04-20T04:49:49.936Z,51.73
2019-04-20T04:52:44.628Z,51.56
2019-04-20T04:55:29.513Z,51.58
2019-04-20T04:58:06.939Z,51.37
2019-04-20T05:01:03.781Z,51.93
2019-04-20T05:04:02.982Z,51.81
2019-04-20T05:06:37.520Z,51.50
2019-04-20T05:09:17.660Z,51.22
2019-04-20T05:12:09.907Z,50.80
2019-04-20T05:15:01.940Z,50.68
2019-04-20T05:17:57.601Z,50.48
2019-04-20T05:20:56.488Z,50.74
2019-04-20T05:23:47.901Z,49.83
2019-04-20T05:27:09.444Z,49.89
2019-04-20T05:29:36.565Z,51.03
2019-04-20T05:32:32.563Z,50.43
2019-04-20T05:35:33.627Z,49.63
2019-04-20T05:38:28.360Z,48.57
2019-04-20T05:41:04.538Z,46.56
2019-04-20T05:44:23.749Z,45.68
2019-04-20T05:47:17.514Z,45.31
2019-04-20T05:49:57.071Z,45.47
2019-04-20T05:52:56.297Z,44.91
2019-04-20T05:55:40.087Z,45.32
2019-04-20T05:58:26.393Z,43.15
2019-04-20T06:01:20.163Z,44.69
2019-04-20T06:04:01.613Z,45.43
2019-04-20T06:06:56.505Z,45.33
2019-04-20T06:09:39.717Z,45.57
2019-04-20T06:12:33.125Z,44.84
2019-04-20T06:15:15.417Z,45.14
2019-04-20T06:18:20.193Z,44.27
2019-04-20T06:21:21.287Z,43.99
2019-04-20T06:24:42.069Z,44.18
2019-04-20T06:27:21.454Z,43.10
2019-04-20T06:30:08.275Z,43.54
2019-04-20T06:33:55.172Z,43.05
2019-04-20T06:36:27.664Z,43.14
2019-04-20T06:39:16.101Z,42.41
2019-04-20T06:44:39.793Z,40.92
2019-04-20T06:47:29.409Z,41.25
2019-04-20T06:50:18.423Z,39.94
2019-04-20T06:53:31.851Z,40.96
2019-04-20T06:56:16.870Z,40.00
2019-04-20T06:59:12.335Z,40.39
2019-04-20T07:01:56.563Z,41.37
2019-04-20T07:04:54.451Z,40.28
2019-04-20T07:07:30.888Z,41.37
2019-04-20T07:10:20.631Z,40.19
2019-04-20T07:12:55.367Z,40.57
2019-04-20T07:15:51.950Z,38.77
2019-04-20T07:19:09.164Z,39.71
2019-04-20T07:22:36.079Z,38.87
2019-04-20T07:25:14.369Z,37.64
2019-04-20T07:28:05.881Z,38.66
2019-04-20T07:30:51.997Z,36.52
2019-04-20T07:33:39.393Z,36.86
2019-04-20T07:36:32.233Z,36.20
2019-04-20T07:39:19.402Z,36.87
2019-04-20T07:42:08.170Z,34.20
2019-04-20T07:44:56.658Z,34.27
2019-04-20T07:47:41.503Z,35.33
2019-04-20T07:50:18.870Z,36.27
2019-04-20T07:53:08.951Z,35.46
2019-04-20T07:56:02.384Z,33.32
2019-04-20T07:58:35.791Z,32.41
2019-04-20T08:01:44.890Z,34.50
2019-04-20T08:04:56.387Z,35.85
2019-04-20T08:07:53.586Z,35.46
2019-04-20T08:10:52.332Z,32.19
2019-04-20T08:13:46.700Z,33.31
2019-04-20T08:16:41.014Z,31.54
2019-04-20T08:19:17.382Z,33.07
2019-04-20T08:22:08.008Z,30.98
2019-04-20T08:24:49.918Z,33.17
2019-04-20T08:27:25.765Z,31.58
2019-04-20T08:30:35.945Z,32.00
2019-04-20T08:33:17.838Z,32.10
2019-04-20T08:36:13.544Z,30.99
2019-04-20T08:41:50.384Z,29.86
2019-04-20T08:47:32.258Z,31.80
2019-04-20T08:50:24.930Z,32.74
2019-04-20T08:53:20.487Z,31.20
2019-04-20T08:55:53.802Z,31.36
2019-04-20T08:58:29.632Z,30.31
2019-04-20T09:01:24.271Z,30.52
2019-04-20T09:04:09.841Z,33.71
2019-04-20T09:07:04.111Z,30.26
2019-04-20T09:10:04.902Z,30.36
2019-04-20T09:12:40.550Z,29.13
2019-04-20T09:15:16.743Z,29.70
2019-04-20T09:18:20.654Z,28.91
2019-04-20T09:21:03.342Z,28.23
2019-04-20T09:24:11.814Z,28.99
2019-04-20T09:26:54.582Z,29.20
2019-04-20T09:29:33.188Z,28.82
2019-04-20T09:32:31.384Z,30.29
2019-04-20T09:35:25.382Z,29.79
2019-04-20T09:38:09.814Z,31.38
2019-04-20T09:41:01.139Z,28.00
2019-04-20T09:43:43.226Z,28.43
2019-04-20T09:46:30.942Z,28.36
2019-04-20T09:49:28.580Z,28.65
2019-04-20T09:52:16.878Z,28.84
2019-04-20T09:55:09.528Z,28.73
2019-04-20T09:57:58.629Z,27.43
2019-04-20T10:00:53.923Z,28.10
2019-04-20T10:03:28.959Z,27.68
2019-04-20T10:06:18.843Z,26.38
2019-04-20T10:09:05.009Z,26.01
2019-04-20T10:11:50.565Z,26.79
2019-04-20T10:14:36.474Z,26.58
2019-04-20T10:17:23.549Z,25.93
2019-04-20T10:20:19.385Z,24.73
2019-04-20T10:22:58.381Z,23.62
2019-04-20T10:25:44.714Z,25.87
2019-04-20T10:28:31.796Z,24.75
2019-04-20T10:31:17.272Z,24.56
2019-04-20T10:34:03.924Z,24.68
2019-04-20T10:37:13.786Z,24.91
2019-04-20T10:40:07.233Z,24.56
2019-04-20T10:42:55.108Z,24.07
2019-04-20T10:45:41.743Z,24.05
2019-04-20T10:48:33.910Z,24.17
2019-04-20T10:51:15.609Z,25.33
2019-04-20T10:54:02.491Z,24.87
2019-04-20T10:56:49.558Z,24.18
2019-04-20T10:59:35.245Z,23.06
2019-04-20T11:02:21.669Z,24.73
2019-04-20T11:05:08.645Z,23.33
2019-04-20T11:07:56.781Z,24.64
2019-04-20T11:10:55.991Z,24.10
2019-04-20T11:13:31.331Z,24.79
2019-04-20T11:16:18.111Z,25.20
2019-04-20T11:19:05.248Z,24.23
2019-04-20T11:21:52.377Z,23.59
2019-04-20T11:24:38.710Z,23.11
2019-04-20T11:27:24.243Z,22.69
2019-04-20T11:30:11.937Z,24.85
2019-04-20T11:32:58.183Z,23.71
2019-04-20T11:35:45.266Z,23.54
2019-04-20T11:38:33.143Z,23.12
2019-04-20T11:41:25.557Z,23.68
2019-04-20T11:44:07.626Z,24.09
2019-04-20T11:46:56.705Z,24.09
2019-04-20T11:49:43.716Z,22.36
2019-04-20T11:52:33.259Z,22.41
2019-04-20T11:55:18.151Z,22.41
2019-04-20T11:58:05.793Z,23.30
2019-04-20T12:01:00.727Z,22.05
2019-04-20T12:03:50.713Z,21.31
2019-04-20T12:06:28.792Z,21.80
2019-04-20T12:09:14.907Z,23.39
2019-04-20T12:12:24.686Z,22.04
2019-04-20T12:15:00.844Z,22.39
2019-04-20T12:17:47.361Z,21.86
2019-04-20T12:20:34.558Z,23.43
2019-04-20T12:23:22.345Z,21.12
2019-04-20T12:26:08.935Z,21.36
2019-04-20T12:28:55.868Z,21.21
2019-04-20T12:31:46.319Z,22.19
2019-04-20T12:34:30.696Z,21.03
2019-04-20T12:37:16.688Z,21.03
2019-04-20T12:40:05.029Z,21.52
2019-04-20T12:42:50.924Z,22.84
2019-04-20T12:45:37.797Z,22.38
2019-04-20T12:48:24.005Z,23.14
2019-04-20T13:00:41.669Z,20.28
2019-04-20T13:03:31.491Z,21.01
2019-04-20T13:06:17.856Z,20.42
2019-04-20T13:09:10.589Z,20.70
2019-04-20T13:12:09.970Z,20.29
2019-04-20T13:15:24.566Z,20.19
2019-04-20T13:18:11.556Z,21.00
2019-04-20T13:20:58.800Z,21.75
2019-04-20T13:23:45.424Z,20.73
2019-04-20T13:26:33.087Z,19.20
2019-04-20T13:29:19.278Z,20.68
2019-04-20T13:32:05.488Z,20.47
2019-04-20T13:34:52.090Z,20.88
2019-04-20T13:37:39.977Z,20.32
2019-04-20T13:40:26.104Z,20.22
2019-04-20T13:43:14.080Z,21.32
2019-04-20T13:46:00.783Z,20.40
2019-04-20T13:48:46.990Z,21.82
2019-04-20T13:51:34.874Z,20.39
2019-04-20T13:54:24.491Z,21.90
2019-04-20T13:57:10.012Z,21.01
2019-04-20T13:59:58.021Z,21.01
2019-04-20T14:02:50.997Z,20.16
2019-04-20T14:05:38.511Z,20.28
2019-04-20T14:08:27.373Z,20.47
2019-04-20T14:11:13.478Z,19.98
2019-04-20T14:14:03.152Z,20.76
2019-04-20T14:16:47.828Z,20.35
2019-04-20T14:19:34.830Z,21.83
2019-04-20T14:22:20.888Z,19.54
2019-04-20T14:25:07.056Z,21.06
2019-04-20T14:27:53.052Z,20.43
2019-04-20T14:30:38.625Z,20.70
2019-04-20T14:33:24.554Z,20.50
2019-04-20T14:36:13.325Z,20.21
2019-04-20T14:39:00.400Z,20.40
2019-04-20T14:41:48.652Z,20.97
2019-04-20T14:44:34.260Z,20.50
2019-04-20T14:47:21.701Z,22.45
2019-04-20T14:50:09.761Z,21.79
2019-04-20T14:52:55.991Z,20.91
2019-04-20T14:55:43.717Z,22.66
2019-04-20T14:58:49.324Z,22.66
2019-04-20T15:01:52.526Z,22.31
2019-04-20T15:04:39.076Z,21.65
2019-04-20T15:07:26.741Z,21.65
2019-04-20T15:10:13.089Z,23.12
2019-04-20T15:13:02.422Z,23.83
2019-04-20T15:15:46.625Z,25.39
2019-04-20T15:18:51.795Z,24.47
2019-04-20T15:21:49.817Z,24.31
2019-04-20T15:24:35.950Z,25.34
2019-04-20T15:27:22.709Z,25.22
2019-04-20T15:30:08.861Z,24.35
2019-04-20T15:32:54.734Z,24.70
2019-04-20T15:35:44.158Z,24.88
2019-04-20T15:38:31.239Z,27.15
2019-04-20T15:41:18.509Z,26.18
2019-04-20T15:44:05.153Z,26.68
2019-04-20T15:46:51.127Z,26.29
2019-04-20T15:49:38.218Z,27.36
2019-04-20T15:52:29.440Z,27.75
2019-04-20T15:55:23.597Z,27.18
2019-04-20T15:57:59.893Z,26.58
2019-04-20T16:00:46.642Z,25.87
2019-04-20T16:03:43.472Z,27.54
2019-04-20T16:06:29.634Z,26.26
2019-04-20T16:09:15.825Z,27.58
2019-04-20T16:12:02.804Z,27.25
2019-04-20T16:14:49.476Z,27.94
2019-04-20T16:17:40.855Z,27.09
2019-04-20T16:20:25.030Z,26.87
2019-04-20T16:23:12.352Z,27.55
2019-04-20T16:26:07.900Z,27.40
2019-04-20T16:28:53.791Z,27.85
2019-04-20T16:31:40.530Z,28.15
2019-04-20T16:34:27.605Z,27.45
2019-04-20T16:37:14.796Z,27.48
2019-04-20T16:40:02.786Z,27.81
2019-04-20T16:42:48.357Z,27.56
2019-04-20T16:45:35.096Z,27.13
2019-04-20T16:48:22.090Z,27.66
2019-04-20T16:51:09.018Z,28.06
2019-04-20T16:53:56.149Z,27.85
2019-04-20T16:56:42.826Z,28.46
2019-04-20T16:59:33.634Z,27.62
2019-04-20T17:02:19.160Z,27.76
2019-04-20T17:05:07.345Z,27.75
2019-04-20T17:07:55.261Z,27.76
2019-04-20T17:10:41.493Z,28.07
2019-04-20T17:13:37.978Z,28.08
2019-04-20T17:16:19.626Z,27.69
2019-04-20T17:19:05.996Z,27.82
2019-04-20T17:21:52.851Z,28.34
2019-04-20T17:24:40.066Z,29.07
2019-04-20T17:27:46.877Z,28.28
2019-04-20T17:30:52.894Z,28.85
2019-04-20T17:33:53.394Z,28.68
2019-04-20T17:36:36.299Z,28.79
2019-04-20T17:39:34.266Z,29.26
2019-04-20T17:42:23.778Z,29.36
2019-04-20T17:45:04.808Z,29.70
2019-04-20T17:48:03.455Z,29.89
2019-04-20T17:50:55.770Z,30.11
2019-04-20T17:53:57.668Z,30.22
2019-04-20T17:56:42.386Z,31.27
2019-04-20T17:59:30.277Z,30.54
2019-04-20T18:02:59.311Z,30.61
2019-04-20T18:05:58.371Z,30.57
2019-04-20T18:08:44.035Z,30.87
2019-04-20T18:11:17.852Z,31.31
2019-04-20T18:14:10.368Z,31.28
2019-04-20T18:17:15.444Z,31.99
2019-04-20T18:19:52.225Z,31.98
2019-04-20T18:22:43.225Z,32.12
2019-04-20T18:25:56.195Z,32.16
2019-04-20T18:28:32.307Z,32.50
2019-04-20T18:31:23.768Z,32.05
2019-04-20T18:34:17.945Z,32.23
2019-04-20T18:37:07.692Z,32.19
2019-04-20T18:39:58.917Z,32.80
2019-04-20T18:42:43.223Z,32.40
2019-04-20T18:45:42.345Z,32.37
2019-04-20T18:48:33.986Z,32.40
2019-04-20T18:51:01.795Z,32.22
2019-04-20T18:53:49.997Z,32.73
2019-04-20T18:56:43.179Z,32.75
2019-04-20T18:59:35.435Z,33.09
2019-04-20T19:02:18.539Z,33.24
2019-04-20T19:05:01.555Z,33.28
2019-04-20T19:07:57.773Z,33.04
2019-04-20T19:10:38.585Z,33.31
2019-04-20T19:13:44.554Z,33.38
2019-04-20T19:16:49.326Z,33.55
2019-04-20T19:19:36.963Z,33.43
2019-04-20T19:22:14.187Z,33.55
2019-04-20T19:25:00.089Z,33.43
2019-04-20T19:27:50.832Z,33.49
2019-04-20T19:30:44.218Z,33.46
2019-04-20T19:33:37.035Z,33.61
2019-04-20T19:36:19.772Z,34.10
2019-04-20T19:39:19.401Z,33.50
2019-04-20T19:42:01.736Z,34.00
2019-04-20T19:44:53.784Z,34.04
2019-04-20T19:47:47.857Z,34.95
2019-04-20T19:53:26.547Z,33.98
2019-04-20T19:56:03.487Z,34.58
2019-04-20T19:58:55.240Z,34.68
2019-04-20T20:01:27.487Z,34.56
2019-04-20T20:04:15.549Z,34.50
2019-04-20T20:07:04.040Z,34.73
2019-04-20T20:09:54.787Z,34.77
2019-04-20T20:12:41.246Z,35.11
2019-04-20T20:15:32.424Z,35.19
2019-04-20T20:18:30.635Z,35.89
2019-04-20T20:21:16.115Z,35.53
2019-04-20T20:23:47.898Z,35.00
2019-04-20T20:26:38.593Z,35.34
2019-04-20T20:29:32.699Z,35.49
2019-04-20T20:32:23.396Z,35.25
2019-04-20T20:35:10.031Z,35.69
2019-04-20T20:37:57.080Z,35.45
2019-04-20T20:40:49.818Z,35.81
2019-04-20T20:43:42.364Z,35.30
2019-04-20T20:46:24.973Z,35.27
2019-04-20T20:49:18.373Z,35.52
2019-04-20T20:52:08.321Z,35.03
2019-04-20T20:54:49.443Z,35.22
2019-04-20T20:57:44.971Z,35.41
2019-04-20T21:00:34.454Z,35.31
2019-04-20T21:03:22.433Z,35.37
2019-04-20T21:05:59.938Z,36.09
2019-04-20T21:08:51.208Z,35.41
2019-04-20T21:11:36.228Z,35.21
2019-04-20T21:14:27.954Z,35.60
2019-04-20T21:17:15.972Z,35.49
2019-04-20T21:20:12.650Z,35.80
2019-04-20T21:23:03.602Z,35.77
2019-04-20T21:25:43.475Z,35.84
2019-04-20T21:28:24.957Z,35.62
2019-04-20T21:31:14.576Z,36.14
2019-04-20T21:34:02.813Z,36.29
2019-04-20T21:36:47.257Z,36.38
2019-04-20T21:39:41.259Z,35.96
2019-04-20T21:42:24.588Z,36.31
2019-04-20T21:45:16.399Z,36.27
2019-04-20T21:48:01.358Z,36.56
2019-04-20T21:51:02.502Z,36.79
2019-04-20T21:53:35.385Z,37.30
2019-04-20T21:56:21.957Z,37.22
2019-04-20T21:59:16.440Z,37.14
2019-04-20T22:02:04.441Z,37.25
2019-04-20T22:04:45.261Z,37.37
2019-04-20T22:07:34.292Z,37.20
2019-04-20T22:10:26.003Z,37.26
2019-04-20T22:13:09.946Z,37.37
2019-04-20T22:16:02.010Z,37.96
2019-04-20T22:18:52.961Z,38.20
2019-04-20T22:21:48.276Z,37.83
2019-04-20T22:24:35.024Z,38.31
2019-04-20T22:27:15.939Z,38.67
2019-04-20T22:29:54.405Z,38.14
2019-04-20T22:32:44.395Z,38.18
2019-04-20T22:35:28.288Z,37.87
2019-04-20T22:38:22.564Z,38.70
2019-04-20T22:41:13.913Z,38.80
2019-04-20T22:43:56.653Z,37.99
2019-04-20T22:46:44.474Z,38.14
2019-04-20T22:49:47.242Z,40.22
2019-04-20T22:52:34.875Z,38.36
2019-04-20T22:55:29.668Z,37.85
2019-04-20T22:58:01.081Z,38.42
2019-04-20T23:00:50.130Z,39.27
2019-04-20T23:03:28.490Z,40.08
2019-04-20T23:06:16.607Z,38.96
2019-04-20T23:09:10.232Z,40.64
2019-04-20T23:12:00.982Z,40.00
2019-04-20T23:14:40.754Z,40.13
2019-04-20T23:17:33.550Z,39.92
2019-04-20T23:20:22.991Z,40.63
2019-04-20T23:23:02.887Z,39.11
2019-04-20T23:25:49.612Z,39.49
2019-04-20T23:28:35.478Z,39.20
2019-04-20T23:31:23.868Z,40.78
2019-04-20T23:34:16.581Z,39.40
2019-04-20T23:36:58.835Z,39.43
2019-04-20T23:39:47.275Z,41.38
2019-04-20T23:42:42.422Z,39.43
2019-04-20T23:45:54.825Z,39.10
2019-04-20T23:49:17.010Z,39.52
2019-04-20T23:52:21.510Z,39.44
2019-04-20T23:54:53.897Z,39.73
2019-04-20T23:57:31.622Z,39.70
